Time;durP1;ratioP1;P1;durP2;ratioP2;P2;SDS_P1;SDS_P2;PMS_P1;PMS_P2;Temp;Humidity;BMP_temperature;BMP_pressure;BME280_temperature;BME280_humidity;BME280_pressure;Samples;Min_cycle;Max_cycle;Signal;HPM_P1;HPM_P2
2023/12/21 00:01:36;;;;;;;22.00;12.30;;;;;;;8.95;56.73;98865.99;107928;1254;59696;-67
2023/12/21 00:04:04;;;;;;;19.50;11.00;;;;;;;9.10;56.39;98868.73;108067;1254;59491;-67
2023/12/21 00:06:32;;;;;;;19.10;11.10;;;;;;;9.23;56.09;98870.86;107962;1255;73023;-67
2023/12/21 00:08:59;;;;;;;18.10;10.30;;;;;;;9.35;55.86;98875.69;107997;1257;70100;-68
2023/12/21 00:11:27;;;;;;;21.20;11.80;;;;;;;9.30;55.77;98873.81;108053;1257;71452;-66
2023/12/21 00:13:54;;;;;;;19.50;11.20;;;;;;;9.32;55.91;98872.15;108032;1254;60923;-64
2023/12/21 00:16:22;;;;;;;21.20;11.20;;;;;;;9.56;55.09;98872.98;107931;1254;61251;-67
2023/12/21 00:18:50;;;;;;;17.30;9.50;;;;;;;9.24;56.00;98878.20;108008;1257;73845;-67
2023/12/21 00:21:17;;;;;;;19.40;10.40;;;;;;;9.24;55.89;98877.44;107941;1254;70389;-66
2023/12/21 00:23:45;;;;;;;16.40;10.10;;;;;;;9.28;55.78;98876.72;108013;1254;72440;-67
2023/12/21 00:26:12;;;;;;;16.30;9.60;;;;;;;9.29;55.76;98877.07;108054;1254;60754;-68
2023/12/21 00:28:39;;;;;;;15.00;8.20;;;;;;;9.31;55.64;98877.63;108026;1260;61064;-68
2023/12/21 00:31:07;;;;;;;13.80;8.40;;;;;;;9.29;55.59;98883.00;107996;1254;71852;-67
2023/12/21 00:33:34;;;;;;;16.30;8.70;;;;;;;9.12;56.37;98886.66;107894;1254;69998;-65
2023/12/21 00:36:03;;;;;;;14.60;8.90;;;;;;;9.06;56.58;98883.96;108027;1254;72758;-68
2023/12/21 00:38:31;;;;;;;14.30;8.60;;;;;;;9.09;56.72;98879.30;108068;1254;60354;-67
2023/12/21 00:40:59;;;;;;;14.70;8.40;;;;;;;9.13;56.65;98875.91;108035;1253;62059;-66
2023/12/21 00:43:26;;;;;;;13.20;7.50;;;;;;;9.22;56.50;98878.64;108095;1254;73091;-67
2023/12/21 00:45:54;;;;;;;12.10;7.30;;;;;;;9.21;56.54;98873.27;108094;1254;68269;-67
2023/12/21 00:48:22;;;;;;;11.60;6.20;;;;;;;9.31;56.27;98872.73;108047;1254;71985;-66
2023/12/21 00:50:49;;;;;;;10.90;7.30;;;;;;;9.41;56.10;98869.05;108208;1254;60934;-67
2023/12/21 00:53:19;;;;;;;11.30;6.10;;;;;;;9.56;55.62;98871.27;108081;1253;60583;-66
2023/12/21 00:55:46;;;;;;;11.60;6.80;;;;;;;9.29;56.16;98871.27;108076;1254;73017;-67
2023/12/21 00:58:14;;;;;;;10.10;6.90;;;;;;;9.27;56.42;98866.29;108053;1254;70298;-67
2023/12/21 01:00:41;;;;;;;10.10;7.00;;;;;;;9.28;56.51;98860.48;108107;1254;70487;-67
2023/12/21 01:03:09;;;;;;;9.50;6.00;;;;;;;9.36;56.43;98861.43;108076;1259;59565;-67
2023/12/21 01:05:36;;;;;;;10.90;6.80;;;;;;;9.42;56.36;98859.02;108013;1254;59999;-67
2023/12/21 01:08:04;;;;;;;11.70;6.10;;;;;;;9.43;56.20;98859.64;108098;1254;74172;-67
2023/12/21 01:10:33;;;;;;;10.10;5.90;;;;;;;9.54;55.98;98858.06;108114;1254;69960;-67
2023/12/21 01:13:00;;;;;;;10.90;6.90;;;;;;;9.60;55.79;98857.19;108120;1254;72677;-66
2023/12/21 01:15:28;;;;;;;9.50;6.10;;;;;;;9.58;55.85;98855.56;108103;1254;60988;-66
2023/12/21 01:17:55;;;;;;;10.70;6.30;;;;;;;9.60;55.83;98853.33;108082;1253;60463;-67
2023/12/21 01:20:23;;;;;;;9.40;5.90;;;;;;;9.57;55.70;98861.39;107951;1259;73035;-67
2023/12/21 01:22:50;;;;;;;8.80;6.10;;;;;;;9.50;55.79;98861.05;108119;1258;67722;-67
2023/12/21 01:25:18;;;;;;;8.90;5.80;;;;;;;9.37;55.99;98860.00;108042;1259;72689;-68
2023/12/21 01:27:45;;;;;;;7.50;5.00;;;;;;;9.34;56.04;98855.05;108123;1254;60465;-65
2023/12/21 01:30:13;;;;;;;8.30;5.50;;;;;;;9.37;55.96;98860.69;108018;1254;60507;-66
2023/12/21 01:32:41;;;;;;;8.80;5.40;;;;;;;9.34;55.85;98863.99;108015;1255;71975;-67
2023/12/21 01:35:08;;;;;;;8.40;5.20;;;;;;;9.33;55.86;98860.20;108139;1254;69014;-67
2023/12/21 01:37:36;;;;;;;10.20;5.70;;;;;;;9.22;55.96;98859.69;107965;1259;72698;-67
2023/12/21 01:40:05;;;;;;;7.80;5.10;;;;;;;9.21;55.90;98865.02;108108;1254;60960;-67
2023/12/21 01:42:32;;;;;;;8.30;6.00;;;;;;;9.18;55.94;98869.04;108112;1254;60322;-66
2023/12/21 01:45:00;;;;;;;10.90;5.50;;;;;;;9.15;55.89;98866.54;108134;1254;72725;-67
2023/12/21 01:47:27;;;;;;;10.00;5.30;;;;;;;9.15;55.96;98865.69;108052;1259;68730;-68
2023/12/21 01:49:55;;;;;;;7.60;5.70;;;;;;;9.06;56.17;98864.75;108032;1254;71346;-66
2023/12/21 01:52:23;;;;;;;7.40;4.70;;;;;;;8.91;56.53;98871.98;108002;1255;60829;-66
2023/12/21 01:54:53;;;;;;;7.50;4.70;;;;;;;8.88;56.51;98873.88;107945;1259;60309;-66
2023/12/21 01:57:21;;;;;;;6.80;4.40;;;;;;;8.92;55.98;98869.45;107976;1260;74050;-68
2023/12/21 01:59:48;;;;;;;7.30;4.70;;;;;;;8.95;55.54;98875.27;107939;1254;70010;-67
2023/12/21 02:02:16;;;;;;;6.90;4.60;;;;;;;8.93;55.27;98873.46;108011;1259;71410;-66
2023/12/21 02:04:44;;;;;;;5.00;3.70;;;;;;;8.90;55.44;98868.14;108119;1254;61320;-66
2023/12/21 02:07:11;;;;;;;7.60;4.50;;;;;;;9.06;54.96;98864.19;108088;1259;60718;-66
2023/12/21 02:09:39;;;;;;;8.00;4.30;;;;;;;9.13;54.29;98862.29;108025;1258;73908;-66
2023/12/21 02:12:07;;;;;;;7.30;4.00;;;;;;;9.13;54.18;98857.75;108043;1260;70615;-66
2023/12/21 02:14:34;;;;;;;6.30;4.10;;;;;;;9.15;53.86;98858.52;108071;1254;71554;-65
2023/12/21 02:17:04;;;;;;;6.90;4.10;;;;;;;9.21;53.65;98848.23;108022;1256;60476;-62
2023/12/21 02:19:32;;;;;;;6.70;3.60;;;;;;;9.29;53.26;98849.91;108027;1254;59154;-66
2023/12/21 02:22:00;;;;;;;5.80;3.70;;;;;;;9.38;52.90;98850.29;107909;1255;72027;-67
2023/12/21 02:24:30;;;;;;;6.00;4.00;;;;;;;9.40;52.19;98848.09;108001;1255;68801;-64
2023/12/21 02:26:57;;;;;;;5.40;3.60;;;;;;;9.42;51.73;98852.34;108060;1259;74889;-66
2023/12/21 02:29:24;;;;;;;6.50;3.50;;;;;;;9.51;51.76;98855.25;108017;1260;60453;-64
2023/12/21 02:31:52;;;;;;;5.50;3.80;;;;;;;9.45;51.88;98860.23;108017;1254;60303;-65
2023/12/21 02:34:19;;;;;;;6.00;3.90;;;;;;;9.32;51.73;98862.36;107858;1254;74208;-65
2023/12/21 02:36:47;;;;;;;6.10;3.50;;;;;;;9.26;52.00;98861.09;107940;1260;70243;-64
2023/12/21 02:39:15;;;;;;;4.90;3.50;;;;;;;9.29;51.95;98851.79;107910;1255;72635;-67
2023/12/21 02:41:42;;;;;;;4.90;3.60;;;;;;;9.24;51.96;98845.94;107922;1254;60338;-67
2023/12/21 02:44:09;;;;;;;6.20;3.40;;;;;;;9.11;52.13;98846.46;107942;1254;60358;-65
2023/12/21 02:46:37;;;;;;;6.30;4.00;;;;;;;9.30;51.52;98848.79;107970;1259;73827;-66
2023/12/21 02:49:05;;;;;;;6.50;3.60;;;;;;;9.31;51.34;98847.17;107957;1260;68820;-65
2023/12/21 02:51:33;;;;;;;7.60;3.90;;;;;;;9.08;51.73;98850.13;107939;1254;72749;-66
2023/12/21 02:54:00;;;;;;;6.60;4.00;;;;;;;8.94;51.94;98852.36;107899;1258;60796;-65
2023/12/21 02:56:28;;;;;;;5.70;3.70;;;;;;;8.83;52.04;98845.04;107887;1260;60971;-64
2023/12/21 02:58:55;;;;;;;6.30;3.70;;;;;;;8.80;52.09;98844.71;107885;1254;73902;-65
2023/12/21 03:01:22;;;;;;;7.80;4.10;;;;;;;8.76;52.24;98847.02;107919;1259;69962;-65
2023/12/21 03:03:51;;;;;;;6.50;3.30;;;;;;;8.77;52.23;98845.54;107844;1257;71203;-67
2023/12/21 03:06:18;;;;;;;6.80;4.30;;;;;;;8.68;52.13;98848.80;107906;1259;62088;-67
2023/12/21 03:08:46;;;;;;;5.80;3.90;;;;;;;8.60;52.48;98849.16;107962;1255;59782;-67
2023/12/21 03:11:13;;;;;;;8.00;3.60;;;;;;;8.58;52.36;98845.25;107866;1254;73854;-67
2023/12/21 03:13:41;;;;;;;8.60;4.70;;;;;;;8.56;52.43;98850.42;107859;1255;70707;-67
2023/12/21 03:16:09;;;;;;;6.90;4.60;;;;;;;8.52;52.59;98851.17;107896;1257;70489;-68
2023/12/21 03:18:37;;;;;;;8.20;4.60;;;;;;;8.42;52.49;98848.79;107861;1257;60388;-66
2023/12/21 03:21:04;;;;;;;6.20;4.40;;;;;;;8.34;52.80;98842.56;107918;1254;60325;-66
2023/12/21 03:23:35;;;;;;;7.10;4.10;;;;;;;8.21;53.03;98838.98;107913;1254;73840;-67
2023/12/21 03:26:02;;;;;;;7.30;4.20;;;;;;;7.99;53.64;98834.23;107865;1260;68804;-68
2023/12/21 03:28:30;;;;;;;6.50;4.30;;;;;;;7.90;53.86;98834.66;107868;1258;72645;-66
2023/12/21 03:30:58;;;;;;;6.30;4.30;;;;;;;7.93;53.80;98835.21;107938;1254;61225;-66
2023/12/21 03:33:25;;;;;;;7.00;4.90;;;;;;;7.91;53.90;98834.10;108029;1253;60421;-66
2023/12/21 03:35:53;;;;;;;6.10;4.20;;;;;;;7.86;53.99;98836.95;107983;1254;72005;-67
2023/12/21 03:38:20;;;;;;;7.00;4.80;;;;;;;7.76;54.14;98838.63;107984;1258;68836;-66
2023/12/21 03:40:48;;;;;;;8.00;4.50;;;;;;;7.73;54.33;98837.90;108021;1258;71708;-65
2023/12/21 03:43:16;;;;;;;5.70;4.00;;;;;;;7.81;54.10;98834.39;108004;1254;60438;-67
2023/12/21 03:45:43;;;;;;;7.50;5.20;;;;;;;7.87;53.89;98838.48;107995;1259;60277;-65
2023/12/21 03:48:11;;;;;;;9.10;4.60;;;;;;;7.81;53.99;98841.90;108054;1254;73924;-66
2023/12/21 03:50:38;;;;;;;9.30;5.20;;;;;;;7.54;54.53;98841.20;108006;1254;69186;-67
2023/12/21 03:53:07;;;;;;;8.60;5.00;;;;;;;7.60;54.59;98844.25;107907;1254;72893;-67
2023/12/21 03:55:36;;;;;;;8.40;4.90;;;;;;;7.51;54.71;98845.54;108058;1254;60421;-66
2023/12/21 03:58:04;;;;;;;8.20;5.00;;;;;;;7.45;55.08;98848.80;108076;1254;60501;-67
2023/12/21 04:00:32;;;;;;;7.60;4.80;;;;;;;7.54;54.84;98848.73;108050;1253;72661;-66
2023/12/21 04:03:03;;;;;;;6.10;4.80;;;;;;;7.51;54.79;98849.02;108048;1255;69070;-66
2023/12/21 04:05:31;;;;;;;8.80;5.10;;;;;;;7.51;54.88;98847.79;108042;1254;71546;-67
2023/12/21 04:07:59;;;;;;;8.80;4.80;;;;;;;7.44;54.94;98849.85;108096;1253;60820;-65
2023/12/21 04:10:26;;;;;;;8.90;5.50;;;;;;;7.22;55.41;98849.45;108057;1254;60326;-65
2023/12/21 04:12:54;;;;;;;10.90;6.50;;;;;;;7.06;55.94;98849.77;108132;1254;73299;-67
2023/12/21 04:15:21;;;;;;;10.40;6.20;;;;;;;7.05;56.22;98851.08;108074;1254;70017;-66
2023/12/21 04:17:49;;;;;;;12.20;6.50;;;;;;;7.04;56.43;98846.73;108015;1259;72681;-68
2023/12/21 04:20:16;;;;;;;11.70;6.70;;;;;;;7.13;56.42;98849.14;108084;1257;60408;-67
2023/12/21 04:22:44;;;;;;;10.20;6.70;;;;;;;7.20;55.91;98850.73;108072;1254;60512;-67
2023/12/21 04:25:12;;;;;;;14.80;8.00;;;;;;;7.45;55.22;98850.20;108013;1254;74381;-67
2023/12/21 04:27:40;;;;;;;13.80;8.30;;;;;;;7.46;55.19;98849.60;108037;1254;69158;-65
2023/12/21 04:30:08;;;;;;;13.80;6.90;;;;;;;7.36;55.25;98845.50;108059;1254;72540;-66
2023/12/21 04:32:36;;;;;;;15.50;8.60;;;;;;;7.35;55.38;98843.65;107931;1254;60498;-67
2023/12/21 04:35:04;;;;;;;14.40;8.50;;;;;;;7.29;55.40;98842.48;107891;1254;60114;-65
2023/12/21 04:37:31;;;;;;;13.70;7.70;;;;;;;7.25;55.23;98847.72;107936;1254;73756;-67
2023/12/21 04:39:59;;;;;;;15.60;9.50;;;;;;;7.20;55.50;98856.71;107895;1254;69190;-65
2023/12/21 04:42:27;;;;;;;15.70;8.90;;;;;;;7.09;55.68;98862.20;107916;1259;71421;-64
2023/12/21 04:44:54;;;;;;;16.80;8.80;;;;;;;7.16;55.42;98865.59;107934;1254;60342;-67
2023/12/21 04:47:21;;;;;;;16.50;8.20;;;;;;;7.16;55.36;98867.14;107865;1254;60184;-67
2023/12/21 04:49:51;;;;;;;17.30;8.40;;;;;;;7.07;55.49;98872.05;107950;1260;73960;-67
2023/12/21 04:52:19;;;;;;;20.40;9.70;;;;;;;7.12;55.64;98876.41;107961;1259;70736;-66
2023/12/21 04:54:47;;;;;;;19.20;8.80;;;;;;;7.20;55.25;98875.21;107877;1256;72763;-67
2023/12/21 04:57:14;;;;;;;17.00;8.60;;;;;;;7.23;55.27;98870.15;107880;1257;60470;-66
2023/12/21 04:59:45;;;;;;;20.30;10.70;;;;;;;7.25;55.18;98872.00;107965;1259;60463;-65
2023/12/21 05:02:13;;;;;;;17.70;9.20;;;;;;;7.17;55.51;98865.35;107915;1254;73036;-66
2023/12/21 05:04:40;;;;;;;23.10;12.20;;;;;;;7.16;55.58;98868.55;107909;1254;71770;-66
2023/12/21 05:07:10;;;;;;;19.10;10.10;;;;;;;7.10;55.50;98866.90;107916;1254;71408;-66
2023/12/21 05:09:38;;;;;;;18.90;9.10;;;;;;;7.08;55.73;98859.65;107961;1254;60831;-66
2023/12/21 05:12:06;;;;;;;22.60;9.80;;;;;;;7.05;55.60;98857.52;107950;1254;60187;-67
2023/12/21 05:14:33;;;;;;;18.00;9.40;;;;;;;7.03;55.59;98857.08;107950;1254;73002;-67
2023/12/21 05:17:01;;;;;;;16.70;8.80;;;;;;;7.10;55.42;98859.93;107778;1254;69338;-65
2023/12/21 05:19:28;;;;;;;13.10;7.70;;;;;;;7.19;55.07;98857.42;107925;1254;71155;-68
2023/12/21 05:21:57;;;;;;;13.60;8.10;;;;;;;7.24;54.82;98854.93;107886;1254;59647;-66
2023/12/21 05:24:24;;;;;;;13.10;7.90;;;;;;;7.19;55.09;98850.27;107803;1254;60341;-66
2023/12/21 05:26:52;;;;;;;13.40;7.60;;;;;;;6.99;55.39;98853.06;107770;1254;74292;-66
2023/12/21 05:29:19;;;;;;;15.90;8.70;;;;;;;6.78;55.89;98854.65;107920;1254;68351;-65
2023/12/21 05:31:46;;;;;;;17.40;8.90;;;;;;;6.64;56.46;98852.42;107988;1255;72890;-66
2023/12/21 05:34:14;;;;;;;18.10;9.40;;;;;;;6.80;55.81;98855.41;108017;1254;60386;-65
2023/12/21 05:36:42;;;;;;;23.60;11.40;;;;;;;6.83;56.04;98857.36;108000;1254;60428;-68
2023/12/21 05:39:10;;;;;;;19.70;10.10;;;;;;;6.73;56.09;98859.02;108035;1254;73862;-66
2023/12/21 05:41:45;;;;;;;16.80;9.90;;;;;;;6.71;56.26;98862.23;108015;1254;69978;-65
2023/12/21 05:44:12;;;;;;;20.70;11.00;;;;;;;6.69;56.12;98867.55;108018;1254;71771;-66
2023/12/21 05:46:42;;;;;;;17.20;9.60;;;;;;;6.74;56.23;98865.27;108054;1254;60303;-67
2023/12/21 05:49:10;;;;;;;21.40;10.70;;;;;;;6.74;56.20;98864.91;108026;1254;60428;-66
2023/12/21 05:51:38;;;;;;;23.00;10.70;;;;;;;6.73;55.97;98867.39;108036;1254;73811;-66
2023/12/21 05:54:06;;;;;;;20.30;10.70;;;;;;;6.65;56.64;98870.52;107995;1260;69200;-65
2023/12/21 05:56:37;;;;;;;20.80;11.70;;;;;;;6.64;56.74;98874.95;108012;1254;72445;-66
2023/12/21 05:59:04;;;;;;;27.70;11.70;;;;;;;6.62;56.93;98876.23;108063;1254;60475;-65
2023/12/21 06:01:33;;;;;;;23.00;12.50;;;;;;;6.58;57.27;98874.83;108039;1254;60450;-66
2023/12/21 06:04:01;;;;;;;25.30;13.50;;;;;;;6.58;57.23;98877.26;108038;1253;72572;-67
2023/12/21 06:06:28;;;;;;;22.40;13.30;;;;;;;6.55;57.28;98873.20;108017;1254;70082;-66
2023/12/21 06:08:56;;;;;;;30.50;14.20;;;;;;;6.58;57.38;98872.21;107999;1254;72433;-68
2023/12/21 06:11:23;;;;;;;30.60;15.00;;;;;;;6.63;57.42;98871.64;107957;1258;60951;-66
2023/12/21 06:13:51;;;;;;;35.90;15.30;;;;;;;6.69;57.13;98870.53;108004;1254;60216;-68
2023/12/21 06:16:18;;;;;;;29.40;15.10;;;;;;;6.52;57.62;98874.35;108002;1254;73880;-67
2023/12/21 06:18:46;;;;;;;31.90;14.70;;;;;;;6.52;57.43;98877.32;107991;1254;68801;-68
2023/12/21 06:21:13;;;;;;;26.60;14.50;;;;;;;6.47;57.42;98881.52;108102;1256;71384;-67
2023/12/21 06:23:41;;;;;;;32.70;17.10;;;;;;;6.44;57.50;98878.15;108085;1254;60886;-66
2023/12/21 06:26:08;;;;;;;34.30;16.40;;;;;;;6.45;57.47;98870.64;107995;1260;59148;-67
2023/12/21 06:28:36;;;;;;;35.50;16.70;;;;;;;6.51;57.35;98871.63;108002;1253;72592;-66
2023/12/21 06:31:04;;;;;;;33.60;17.10;;;;;;;6.56;57.22;98875.23;107865;1254;70611;-66
2023/12/21 06:33:32;;;;;;;28.50;15.70;;;;;;;6.53;57.53;98879.05;107919;1254;72624;-66
2023/12/21 06:35:59;;;;;;;43.80;18.90;;;;;;;6.51;57.90;98886.62;107914;1254;60524;-66
2023/12/21 06:38:27;;;;;;;43.00;20.10;;;;;;;6.45;58.05;98885.30;107931;1254;60459;-68
2023/12/21 06:40:54;;;;;;;44.10;19.80;;;;;;;6.51;57.90;98886.61;107906;1259;73884;-68
2023/12/21 06:43:23;;;;;;;44.20;20.00;;;;;;;6.57;57.91;98885.48;107965;1254;68332;-67
2023/12/21 06:45:51;;;;;;;51.20;20.70;;;;;;;6.60;57.89;98890.23;107912;1259;71505;-67
2023/12/21 06:48:19;;;;;;;73.70;24.50;;;;;;;6.68;57.96;98894.13;107924;1256;60833;-67
2023/12/21 06:50:46;;;;;;;52.00;21.70;;;;;;;6.75;57.69;98895.91;107879;1254;59238;-66
2023/12/21 06:53:15;;;;;;;66.70;24.60;;;;;;;6.70;57.98;98897.89;107911;1254;73877;-67
2023/12/21 06:55:44;;;;;;;;;;;;;;;6.67;58.21;98903.73;107987;1254;73070;-67
2023/12/21 06:58:12;;;;;;;52.10;22.90;;;;;;;6.65;58.39;98903.69;107981;1254;71375;-67
2023/12/21 07:00:40;;;;;;;68.80;28.60;;;;;;;6.62;58.72;98901.02;108030;1254;60880;-67
2023/12/21 07:03:08;;;;;;;66.30;26.70;;;;;;;6.73;58.69;98901.23;107932;1259;60329;-67
2023/12/21 07:05:36;;;;;;;55.20;25.90;;;;;;;6.86;58.54;98894.43;107928;1254;73800;-67
2023/12/21 07:08:05;;;;;;;53.40;24.60;;;;;;;6.92;58.45;98887.56;107969;1254;69818;-67
2023/12/21 07:10:32;;;;;;;41.30;19.60;;;;;;;7.02;58.33;98889.58;107908;1256;72514;-69
2023/12/21 07:13:01;;;;;;;44.50;19.60;;;;;;;7.08;58.32;98890.52;107892;1254;60534;-68
2023/12/21 07:15:29;;;;;;;38.00;19.40;;;;;;;7.09;58.31;98888.92;107957;1254;60362;-66
2023/12/21 07:17:56;;;;;;;38.70;21.40;;;;;;;7.09;58.39;98892.42;107931;1254;75947;-66
2023/12/21 07:20:25;;;;;;;37.90;20.50;;;;;;;7.14;58.57;98895.14;107860;1254;70490;-63
2023/12/21 07:22:53;;;;;;;38.40;20.20;;;;;;;7.25;58.33;98896.45;107865;1254;71426;-65
2023/12/21 07:25:21;;;;;;;30.80;17.40;;;;;;;7.30;58.15;98894.50;107908;1254;63137;-66
2023/12/21 07:27:49;;;;;;;40.40;19.80;;;;;;;7.42;57.87;98894.34;107932;1254;60462;-67
2023/12/21 07:30:16;;;;;;;42.40;19.60;;;;;;;7.33;58.34;98898.02;107894;1254;76292;-68
2023/12/21 07:32:44;;;;;;;44.20;21.90;;;;;;;7.26;58.76;98895.52;108003;1254;70367;-67
2023/12/21 07:35:12;;;;;;;35.60;18.60;;;;;;;7.43;57.96;98895.67;108020;1254;72674;-67
2023/12/21 07:37:39;;;;;;;35.30;16.50;;;;;;;7.34;58.44;98897.09;107996;1254;61381;-67
2023/12/21 07:40:08;;;;;;;38.50;20.80;;;;;;;7.25;58.60;98894.84;108093;1254;59803;-67
2023/12/21 07:42:35;;;;;;;35.80;18.10;;;;;;;7.34;58.56;98893.09;108032;1254;72621;-66
2023/12/21 07:45:05;;;;;;;30.80;17.70;;;;;;;7.43;58.30;98893.56;108021;1254;68732;-64
2023/12/21 07:47:32;;;;;;;35.40;18.10;;;;;;;7.52;58.22;98890.39;108005;1254;72452;-67
2023/12/21 07:50:00;;;;;;;34.40;16.20;;;;;;;7.50;58.41;98886.63;108119;1254;60437;-68
2023/12/21 07:52:27;;;;;;;28.90;15.90;;;;;;;7.52;58.33;98884.43;108108;1257;60277;-68
2023/12/21 07:54:55;;;;;;;37.20;15.10;;;;;;;7.48;58.68;98887.05;108095;1253;74254;-66
2023/12/21 07:57:23;;;;;;;29.70;16.40;;;;;;;7.54;58.62;98884.02;108101;1252;69621;-65
2023/12/21 07:59:51;;;;;;;40.50;16.70;;;;;;;7.65;58.30;98882.31;108081;1254;71383;-69
2023/12/21 08:02:19;;;;;;;25.30;15.50;;;;;;;7.74;58.26;98882.91;108082;1253;60457;-68
2023/12/21 08:04:46;;;;;;;32.50;17.00;;;;;;;7.84;58.14;98883.00;108137;1254;60472;-69
2023/12/21 08:07:14;;;;;;;32.50;17.70;;;;;;;7.94;57.90;98879.40;108079;1253;72806;-68
2023/12/21 08:09:42;;;;;;;30.50;16.60;;;;;;;8.03;57.63;98878.09;108031;1257;72547;-67
2023/12/21 08:12:13;;;;;;;34.30;17.40;;;;;;;8.26;57.09;98873.37;108120;1253;71287;-68
2023/12/21 08:14:40;;;;;;;32.00;15.40;;;;;;;8.38;57.21;98872.08;108099;1254;60334;-68
2023/12/21 08:17:10;;;;;;;26.30;16.00;;;;;;;8.49;56.91;98868.61;108086;1253;60354;-68
2023/12/21 08:23:16;;;;;;;33.00;18.00;;;;;;;5.94;65.81;98867.99;104785;1292;600278;-67
2023/12/21 08:25:44;;;;;;;31.70;16.80;;;;;;;7.46;60.94;98858.51;107261;1267;60898;-67
2023/12/21 08:28:11;;;;;;;30.00;16.80;;;;;;;8.11;59.85;98859.20;107294;1270;59549;-67
2023/12/21 08:30:41;;;;;;;24.30;14.50;;;;;;;8.93;58.32;98855.07;107421;1263;72185;-67
2023/12/21 08:33:09;;;;;;;29.50;14.90;;;;;;;9.59;56.19;98846.20;107426;1263;68053;-67
2023/12/21 08:35:36;;;;;;;27.50;15.90;;;;;;;10.27;54.56;98838.64;107443;1263;71835;-68
2023/12/21 08:38:04;;;;;;;25.70;15.30;;;;;;;11.04;53.02;98829.09;107493;1259;97936;-69
2023/12/21 08:40:31;;;;;;;28.80;15.90;;;;;;;11.74;50.26;98827.46;107524;1259;60306;-66
2023/12/21 08:42:59;;;;;;;24.60;14.10;;;;;;;12.46;47.97;98824.51;107568;1259;69994;-67
2023/12/21 08:45:27;;;;;;;22.70;13.60;;;;;;;12.64;45.78;98820.11;107556;1260;70795;-68
2023/12/21 08:47:56;;;;;;;25.40;13.50;;;;;;;12.42;45.47;98812.07;107549;1259;72429;-67
2023/12/21 08:50:24;;;;;;;21.60;13.30;;;;;;;11.82;46.30;98807.45;107600;1260;60688;-66
2023/12/21 08:52:53;;;;;;;22.30;13.00;;;;;;;11.46;46.92;98804.96;107605;1260;60048;-67
2023/12/21 08:55:23;;;;;;;25.20;14.30;;;;;;;11.01;47.92;98806.11;107555;1260;73225;-68
2023/12/21 08:57:50;;;;;;;21.70;13.10;;;;;;;10.90;48.46;98806.95;107583;1260;70138;-68
2023/12/21 09:00:18;;;;;;;25.80;14.20;;;;;;;10.97;48.57;98807.77;107496;1260;74978;-68
2023/12/21 09:02:46;;;;;;;21.30;12.50;;;;;;;10.94;48.58;98802.13;107498;1260;59863;-68
2023/12/21 09:05:14;;;;;;;26.50;14.90;;;;;;;10.99;48.50;98808.13;107445;1260;59544;-67
2023/12/21 09:07:42;;;;;;;28.80;15.90;;;;;;;11.18;48.62;98803.17;107853;1256;73344;-66
2023/12/21 09:10:10;;;;;;;28.10;15.00;;;;;;;11.35;48.29;98798.26;107829;1256;70499;-68
2023/12/21 09:12:38;;;;;;;28.40;15.20;;;;;;;11.54;47.81;98798.33;107761;1257;72791;-69
2023/12/21 09:15:06;;;;;;;26.30;15.70;;;;;;;11.64;47.21;98796.45;107702;1256;59610;-67
2023/12/21 09:17:34;;;;;;;25.80;14.30;;;;;;;11.78;47.05;98791.52;107801;1256;61426;-68
2023/12/21 09:20:02;;;;;;;25.20;14.40;;;;;;;11.92;46.53;98790.16;107730;1256;73653;-67
2023/12/21 09:22:30;;;;;;;22.30;13.70;;;;;;;12.02;46.27;98787.06;107745;1257;69633;-68
2023/12/21 09:25:00;;;;;;;24.70;15.70;;;;;;;12.14;45.81;98779.06;107766;1257;72856;-68
2023/12/21 09:27:30;;;;;;;24.00;15.10;;;;;;;12.34;45.32;98776.52;107778;1260;59758;-70
2023/12/21 09:29:58;;;;;;;26.00;14.00;;;;;;;12.59;44.83;98772.95;107783;1256;60182;-68
2023/12/21 09:32:26;;;;;;;25.30;13.80;;;;;;;12.78;44.20;98764.64;107829;1256;73527;-68
2023/12/21 09:34:53;;;;;;;24.30;13.30;;;;;;;12.92;43.83;98762.44;107838;1256;72384;-68
2023/12/21 09:37:21;;;;;;;21.90;13.50;;;;;;;12.95;43.53;98762.78;107805;1257;72875;-68
2023/12/21 09:39:49;;;;;;;22.50;12.70;;;;;;;12.97;43.44;98763.69;107902;1256;59582;-68
2023/12/21 09:42:16;;;;;;;22.70;13.70;;;;;;;12.68;43.71;98765.45;107976;1256;61057;-68
2023/12/21 09:44:48;;;;;;;26.50;13.40;;;;;;;12.49;44.07;98772.58;107720;1262;71878;-67
2023/12/21 09:47:19;;;;;;;21.50;13.70;;;;;;;12.62;44.30;98769.95;107909;1256;72507;-69
2023/12/21 09:49:47;;;;;;;22.60;12.50;;;;;;;12.76;44.11;98767.39;107854;1256;71358;-64
2023/12/21 09:52:15;;;;;;;22.60;13.10;;;;;;;12.79;43.37;98764.05;107873;1256;59517;-64
2023/12/21 09:54:43;;;;;;;21.40;11.80;;;;;;;12.74;43.32;98760.30;107753;1256;60031;-66
2023/12/21 09:57:10;;;;;;;21.10;12.80;;;;;;;13.31;43.16;98753.09;107724;1255;73036;-68
2023/12/21 09:59:38;;;;;;;21.90;13.10;;;;;;;14.02;41.90;98749.23;107900;1256;69168;-67
2023/12/21 10:02:11;;;;;;;20.80;11.50;;;;;;;14.65;40.10;98744.92;107871;1257;73704;-67
2023/12/21 10:04:43;;;;;;;18.50;11.60;;;;;;;15.32;38.94;98736.22;107743;1263;60474;-68
2023/12/21 10:07:11;;;;;;;16.10;10.70;;;;;;;16.02;37.62;98734.54;107853;1256;59142;-67
2023/12/21 10:09:38;;;;;;;15.80;9.60;;;;;;;16.38;36.62;98727.33;107857;1256;73538;-67
2023/12/21 10:12:09;;;;;;;15.20;9.70;;;;;;;16.66;35.48;98722.02;107726;1256;69948;-69
2023/12/21 10:14:36;;;;;;;16.00;9.40;;;;;;;16.96;34.98;98717.02;107921;1255;72858;-69
2023/12/21 10:17:09;;;;;;;16.30;9.00;;;;;;;17.53;34.63;98710.09;107786;1255;59240;-66
2023/12/21 10:19:43;;;;;;;14.10;9.00;;;;;;;18.04;32.83;98707.13;107958;1258;59627;-69
2023/12/21 10:22:11;;;;;;;17.10;8.80;;;;;;;18.14;32.61;98702.17;107728;1262;73076;-68
2023/12/21 10:24:38;;;;;;;13.00;9.30;;;;;;;18.09;32.03;98707.22;107959;1254;69098;-67
2023/12/21 10:27:12;;;;;;;16.80;9.30;;;;;;;18.02;32.22;98707.13;107905;1256;71635;-67
2023/12/21 10:29:40;;;;;;;15.60;8.20;;;;;;;17.88;31.89;98707.33;107954;1254;59511;-67
2023/12/21 10:32:09;;;;;;;14.50;8.40;;;;;;;17.45;32.22;98703.49;107996;1254;59216;-68
2023/12/21 10:34:36;;;;;;;14.30;9.80;;;;;;;16.96;32.76;98697.80;107935;1254;71927;-68
2023/12/21 10:37:04;;;;;;;13.50;9.30;;;;;;;16.87;33.22;98696.30;107995;1255;70229;-68
2023/12/21 10:39:31;;;;;;;15.60;9.30;;;;;;;16.73;33.08;98702.10;107686;1256;75106;-69
2023/12/21 10:42:00;;;;;;;13.20;8.20;;;;;;;16.94;32.99;98702.28;108144;1254;60965;-68
2023/12/21 10:44:27;;;;;;;13.70;8.70;;;;;;;17.14;32.75;98705.13;108192;1252;62116;-62
2023/12/21 10:46:55;;;;;;;16.00;8.40;;;;;;;17.15;32.46;98701.14;108124;1260;72073;-67
2023/12/21 10:49:23;;;;;;;16.20;9.10;;;;;;;16.63;32.60;98695.64;107948;1253;72063;-66
2023/12/21 10:51:50;;;;;;;13.80;8.50;;;;;;;16.13;33.65;98693.14;108137;1259;74044;-69
2023/12/21 10:54:18;;;;;;;14.40;9.10;;;;;;;15.41;34.63;98693.74;108120;1253;60762;-68
2023/12/21 10:56:46;;;;;;;17.50;9.30;;;;;;;14.69;35.58;98691.79;108156;1252;59103;-69
2023/12/21 10:59:17;;;;;;;14.80;9.20;;;;;;;14.19;36.33;98688.70;108142;1253;71839;-68
2023/12/21 11:01:44;;;;;;;16.30;9.90;;;;;;;13.67;37.07;98688.42;107945;1253;72727;-67
2023/12/21 11:04:12;;;;;;;17.30;9.80;;;;;;;13.24;38.07;98688.83;108157;1254;74938;-68
2023/12/21 11:06:40;;;;;;;16.20;9.70;;;;;;;12.87;38.89;98684.60;107920;1254;61467;-67
2023/12/21 11:09:09;;;;;;;16.50;9.80;;;;;;;12.49;39.91;98676.80;108211;1253;61063;-66
2023/12/21 11:11:37;;;;;;;22.70;9.50;;;;;;;12.12;40.74;98676.96;108160;1252;74272;-69
2023/12/21 11:14:05;;;;;;;16.60;9.30;;;;;;;12.17;40.81;98672.29;107946;1260;69552;-68
2023/12/21 11:16:36;;;;;;;18.10;10.30;;;;;;;12.10;41.12;98671.27;108134;1253;73998;-68
2023/12/21 11:19:05;;;;;;;18.10;9.80;;;;;;;12.09;41.30;98664.19;108118;1254;60283;-68
2023/12/21 11:21:33;;;;;;;19.20;9.70;;;;;;;12.03;41.41;98655.45;108216;1253;61716;-69
2023/12/21 11:24:02;;;;;;;16.70;9.70;;;;;;;12.09;41.52;98650.96;108009;1254;72965;-69
2023/12/21 11:26:29;;;;;;;19.00;9.70;;;;;;;11.87;42.09;98655.70;108034;1253;71245;-67
2023/12/21 11:29:04;;;;;;;18.20;9.90;;;;;;;11.50;42.65;98658.96;107996;1258;72807;-68